sensor_id;sensor_type;location;lat;lon;timestamp;P1;durP1;ratioP1;P2;durP2;ratioP2
5702;SDS011;2876;51.738;10.050;2023-07-13T00:00:26;6.37;;;2.83;;
5702;SDS011;2876;51.738;10.050;2023-07-13T00:06:28;4.70;;;3.40;;
5702;SDS011;2876;51.738;10.050;2023-07-13T00:12:35;3.27;;;2.47;;
5702;SDS011;2876;51.738;10.050;2023-07-13T00:18:43;5.97;;;2.70;;
5702;SDS011;2876;51.738;10.050;2023-07-13T00:24:47;3.53;;;2.90;;
5702;SDS011;2876;51.738;10.050;2023-07-13T00:30:49;3.00;;;2.43;;
5702;SDS011;2876;51.738;10.050;2023-07-13T00:36:51;5.20;;;2.73;;
5702;SDS011;2876;51.738;10.050;2023-07-13T00:42:53;3.07;;;2.50;;
5702;SDS011;2876;51.738;10.050;2023-07-13T00:49:02;5.43;;;2.50;;
5702;SDS011;2876;51.738;10.050;2023-07-13T00:55:07;6.30;;;3.03;;
5702;SDS011;2876;51.738;10.050;2023-07-13T01:01:11;4.07;;;2.60;;
5702;SDS011;2876;51.738;10.050;2023-07-13T01:07:14;5.13;;;2.50;;
5702;SDS011;2876;51.738;10.050;2023-07-13T01:13:16;3.13;;;2.30;;
5702;SDS011;2876;51.738;10.050;2023-07-13T01:19:38;5.23;;;2.40;;
5702;SDS011;2876;51.738;10.050;2023-07-13T01:25:46;3.63;;;2.60;;
5702;SDS011;2876;51.738;10.050;2023-07-13T01:31:48;2.37;;;2.17;;
5702;SDS011;2876;51.738;10.050;2023-07-13T01:37:50;4.10;;;2.83;;
5702;SDS011;2876;51.738;10.050;2023-07-13T01:43:52;2.73;;;2.50;;
5702;SDS011;2876;51.738;10.050;2023-07-13T01:49:54;7.53;;;3.00;;
5702;SDS011;2876;51.738;10.050;2023-07-13T01:55:56;3.00;;;2.20;;
5702;SDS011;2876;51.738;10.050;2023-07-13T02:01:58;3.57;;;2.60;;
5702;SDS011;2876;51.738;10.050;2023-07-13T02:08:00;5.70;;;2.77;;
5702;SDS011;2876;51.738;10.050;2023-07-13T02:14:02;3.07;;;2.77;;
5702;SDS011;2876;51.738;10.050;2023-07-13T02:20:05;4.07;;;2.60;;
5702;SDS011;2876;51.738;10.050;2023-07-13T02:26:08;5.30;;;2.60;;
5702;SDS011;2876;51.738;10.050;2023-07-13T02:32:11;2.63;;;2.30;;
5702;SDS011;2876;51.738;10.050;2023-07-13T02:38:13;3.57;;;3.13;;
5702;SDS011;2876;51.738;10.050;2023-07-13T02:44:15;4.30;;;3.27;;
5702;SDS011;2876;51.738;10.050;2023-07-13T02:50:17;3.77;;;2.70;;
5702;SDS011;2876;51.738;10.050;2023-07-13T02:56:24;4.70;;;2.80;;
5702;SDS011;2876;51.738;10.050;2023-07-13T03:02:28;4.67;;;2.87;;
5702;SDS011;2876;51.738;10.050;2023-07-13T03:08:30;3.10;;;2.70;;
5702;SDS011;2876;51.738;10.050;2023-07-13T03:14:33;5.03;;;2.97;;
5702;SDS011;2876;51.738;10.050;2023-07-13T03:20:35;5.10;;;2.93;;
5702;SDS011;2876;51.738;10.050;2023-07-13T03:26:37;7.70;;;3.03;;
5702;SDS011;2876;51.738;10.050;2023-07-13T03:32:39;3.13;;;2.83;;
5702;SDS011;2876;51.738;10.050;2023-07-13T03:38:42;11.27;;;3.07;;
5702;SDS011;2876;51.738;10.050;2023-07-13T03:44:44;4.37;;;2.30;;
5702;SDS011;2876;51.738;10.050;2023-07-13T03:50:51;8.50;;;3.17;;
5702;SDS011;2876;51.738;10.050;2023-07-13T03:56:53;5.23;;;2.57;;
5702;SDS011;2876;51.738;10.050;2023-07-13T04:02:56;6.40;;;2.90;;
5702;SDS011;2876;51.738;10.050;2023-07-13T04:08:59;3.50;;;2.60;;
5702;SDS011;2876;51.738;10.050;2023-07-13T04:15:02;5.80;;;3.17;;
5702;SDS011;2876;51.738;10.050;2023-07-13T04:21:05;4.37;;;2.90;;
5702;SDS011;2876;51.738;10.050;2023-07-13T04:27:07;13.57;;;2.97;;
5702;SDS011;2876;51.738;10.050;2023-07-13T04:33:09;4.93;;;3.10;;
5702;SDS011;2876;51.738;10.050;2023-07-13T04:39:11;3.73;;;2.60;;
5702;SDS011;2876;51.738;10.050;2023-07-13T04:45:13;5.30;;;2.93;;
5702;SDS011;2876;51.738;10.050;2023-07-13T04:51:16;6.57;;;2.93;;
5702;SDS011;2876;51.738;10.050;2023-07-13T04:57:18;7.17;;;2.50;;
5702;SDS011;2876;51.738;10.050;2023-07-13T05:03:20;9.07;;;3.03;;
5702;SDS011;2876;51.738;10.050;2023-07-13T05:09:23;6.40;;;2.57;;
5702;SDS011;2876;51.738;10.050;2023-07-13T05:15:25;3.67;;;2.87;;
5702;SDS011;2876;51.738;10.050;2023-07-13T05:21:27;4.67;;;3.60;;
5702;SDS011;2876;51.738;10.050;2023-07-13T05:27:29;2.80;;;2.60;;
5702;SDS011;2876;51.738;10.050;2023-07-13T05:33:31;6.20;;;3.27;;
5702;SDS011;2876;51.738;10.050;2023-07-13T05:39:34;5.60;;;2.77;;
5702;SDS011;2876;51.738;10.050;2023-07-13T05:45:36;7.00;;;2.80;;
5702;SDS011;2876;51.738;10.050;2023-07-13T05:51:38;8.20;;;2.80;;
5702;SDS011;2876;51.738;10.050;2023-07-13T05:57:39;5.60;;;3.30;;
5702;SDS011;2876;51.738;10.050;2023-07-13T06:03:41;7.83;;;2.67;;
5702;SDS011;2876;51.738;10.050;2023-07-13T06:09:43;7.73;;;3.17;;
5702;SDS011;2876;51.738;10.050;2023-07-13T06:15:49;5.37;;;3.17;;
5702;SDS011;2876;51.738;10.050;2023-07-13T06:21:51;5.20;;;3.40;;
5702;SDS011;2876;51.738;10.050;2023-07-13T06:27:55;6.50;;;2.80;;
5702;SDS011;2876;51.738;10.050;2023-07-13T06:33:57;3.23;;;1.60;;
5702;SDS011;2876;51.738;10.050;2023-07-13T06:39:59;5.47;;;2.00;;
5702;SDS011;2876;51.738;10.050;2023-07-13T06:46:01;7.33;;;1.73;;
5702;SDS011;2876;51.738;10.050;2023-07-13T06:52:03;5.87;;;1.60;;
5702;SDS011;2876;51.738;10.050;2023-07-13T06:58:06;5.87;;;1.90;;
5702;SDS011;2876;51.738;10.050;2023-07-13T07:04:08;2.40;;;1.60;;
5702;SDS011;2876;51.738;10.050;2023-07-13T07:10:10;2.37;;;1.73;;
5702;SDS011;2876;51.738;10.050;2023-07-13T07:16:12;2.10;;;1.47;;
5702;SDS011;2876;51.738;10.050;2023-07-13T07:22:14;2.30;;;1.70;;
5702;SDS011;2876;51.738;10.050;2023-07-13T07:28:16;2.03;;;1.63;;
5702;SDS011;2876;51.738;10.050;2023-07-13T07:34:22;4.00;;;1.43;;
5702;SDS011;2876;51.738;10.050;2023-07-13T07:40:24;3.43;;;1.20;;
5702;SDS011;2876;51.738;10.050;2023-07-13T07:46:29;2.90;;;1.63;;
5702;SDS011;2876;51.738;10.050;2023-07-13T07:52:31;5.70;;;2.17;;
5702;SDS011;2876;51.738;10.050;2023-07-13T07:58:33;6.90;;;1.43;;
5702;SDS011;2876;51.738;10.050;2023-07-13T08:04:38;5.60;;;2.03;;
5702;SDS011;2876;51.738;10.050;2023-07-13T08:11:04;4.90;;;1.87;;
5702;SDS011;2876;51.738;10.050;2023-07-13T08:17:11;2.03;;;1.30;;
5702;SDS011;2876;51.738;10.050;2023-07-13T08:23:13;2.63;;;1.30;;
5702;SDS011;2876;51.738;10.050;2023-07-13T08:29:16;2.80;;;1.53;;
5702;SDS011;2876;51.738;10.050;2023-07-13T08:35:18;2.50;;;1.47;;
5702;SDS011;2876;51.738;10.050;2023-07-13T08:41:20;3.40;;;1.50;;
5702;SDS011;2876;51.738;10.050;2023-07-13T08:47:23;5.50;;;1.70;;
5702;SDS011;2876;51.738;10.050;2023-07-13T08:53:29;3.07;;;1.43;;
5702;SDS011;2876;51.738;10.050;2023-07-13T08:59:42;4.87;;;1.40;;
5702;SDS011;2876;51.738;10.050;2023-07-13T09:05:44;3.60;;;1.53;;
5702;SDS011;2876;51.738;10.050;2023-07-13T09:12:35;1.93;;;1.53;;
5702;SDS011;2876;51.738;10.050;2023-07-13T09:18:51;3.47;;;1.20;;
5702;SDS011;2876;51.738;10.050;2023-07-13T09:25:00;3.57;;;1.67;;
5702;SDS011;2876;51.738;10.050;2023-07-13T09:37:38;3.40;;;2.10;;
5702;SDS011;2876;51.738;10.050;2023-07-13T09:44:01;1.30;;;1.20;;
5702;SDS011;2876;51.738;10.050;2023-07-13T09:50:14;5.97;;;1.70;;
5702;SDS011;2876;51.738;10.050;2023-07-13T09:56:21;2.63;;;1.20;;
5702;SDS011;2876;51.738;10.050;2023-07-13T10:08:34;4.13;;;1.73;;
5702;SDS011;2876;51.738;10.050;2023-07-13T10:14:38;5.03;;;1.60;;
5702;SDS011;2876;51.738;10.050;2023-07-13T10:20:41;5.60;;;1.50;;
5702;SDS011;2876;51.738;10.050;2023-07-13T10:26:46;3.10;;;1.43;;
5702;SDS011;2876;51.738;10.050;2023-07-13T10:33:02;3.10;;;1.40;;
5702;SDS011;2876;51.738;10.050;2023-07-13T10:39:16;4.63;;;1.90;;
5702;SDS011;2876;51.738;10.050;2023-07-13T10:45:25;2.50;;;1.70;;
5702;SDS011;2876;51.738;10.050;2023-07-13T10:51:35;1.70;;;1.30;;
5702;SDS011;2876;51.738;10.050;2023-07-13T10:57:42;2.77;;;1.10;;
5702;SDS011;2876;51.738;10.050;2023-07-13T11:10:04;3.00;;;2.00;;
5702;SDS011;2876;51.738;10.050;2023-07-13T11:16:36;3.23;;;1.37;;
5702;SDS011;2876;51.738;10.050;2023-07-13T11:28:53;2.27;;;1.63;;
5702;SDS011;2876;51.738;10.050;2023-07-13T11:34:55;3.33;;;1.77;;
5702;SDS011;2876;51.738;10.050;2023-07-13T11:40:58;3.80;;;1.70;;
5702;SDS011;2876;51.738;10.050;2023-07-13T11:47:10;5.60;;;1.53;;
5702;SDS011;2876;51.738;10.050;2023-07-13T11:53:18;5.13;;;1.77;;
5702;SDS011;2876;51.738;10.050;2023-07-13T11:59:20;2.57;;;1.60;;
5702;SDS011;2876;51.738;10.050;2023-07-13T12:05:23;3.40;;;2.87;;
5702;SDS011;2876;51.738;10.050;2023-07-13T12:11:26;2.60;;;1.67;;
5702;SDS011;2876;51.738;10.050;2023-07-13T12:17:28;3.63;;;1.83;;
5702;SDS011;2876;51.738;10.050;2023-07-13T12:23:32;3.40;;;1.97;;
5702;SDS011;2876;51.738;10.050;2023-07-13T12:29:36;2.90;;;1.80;;
5702;SDS011;2876;51.738;10.050;2023-07-13T12:35:42;1.93;;;1.73;;
5702;SDS011;2876;51.738;10.050;2023-07-13T12:41:53;4.30;;;1.90;;
5702;SDS011;2876;51.738;10.050;2023-07-13T12:48:14;3.63;;;1.80;;
5702;SDS011;2876;51.738;10.050;2023-07-13T12:54:26;2.60;;;1.40;;
5702;SDS011;2876;51.738;10.050;2023-07-13T13:00:31;4.33;;;1.70;;
5702;SDS011;2876;51.738;10.050;2023-07-13T13:06:40;3.13;;;1.30;;
5702;SDS011;2876;51.738;10.050;2023-07-13T13:12:43;2.70;;;1.50;;
5702;SDS011;2876;51.738;10.050;2023-07-13T13:18:45;9.60;;;2.13;;
5702;SDS011;2876;51.738;10.050;2023-07-13T13:24:47;2.93;;;1.50;;
5702;SDS011;2876;51.738;10.050;2023-07-13T13:30:50;3.70;;;1.90;;
5702;SDS011;2876;51.738;10.050;2023-07-13T13:36:53;4.77;;;1.93;;
5702;SDS011;2876;51.738;10.050;2023-07-13T13:43:00;4.30;;;1.83;;
5702;SDS011;2876;51.738;10.050;2023-07-13T13:49:02;3.90;;;1.90;;
5702;SDS011;2876;51.738;10.050;2023-07-13T13:55:11;1.90;;;1.50;;
5702;SDS011;2876;51.738;10.050;2023-07-13T14:01:20;5.33;;;2.00;;
5702;SDS011;2876;51.738;10.050;2023-07-13T14:07:25;6.00;;;1.67;;
5702;SDS011;2876;51.738;10.050;2023-07-13T14:13:35;5.70;;;2.27;;
5702;SDS011;2876;51.738;10.050;2023-07-13T14:19:50;2.77;;;1.87;;
5702;SDS011;2876;51.738;10.050;2023-07-13T14:25:57;1.97;;;1.57;;
5702;SDS011;2876;51.738;10.050;2023-07-13T14:31:59;2.50;;;1.80;;
5702;SDS011;2876;51.738;10.050;2023-07-13T14:38:02;6.60;;;2.47;;
5702;SDS011;2876;51.738;10.050;2023-07-13T14:44:10;2.47;;;1.73;;
5702;SDS011;2876;51.738;10.050;2023-07-13T14:50:23;4.87;;;1.90;;
5702;SDS011;2876;51.738;10.050;2023-07-13T14:56:32;3.40;;;1.80;;
5702;SDS011;2876;51.738;10.050;2023-07-13T15:02:34;3.90;;;1.63;;
5702;SDS011;2876;51.738;10.050;2023-07-13T15:08:39;3.90;;;1.70;;
5702;SDS011;2876;51.738;10.050;2023-07-13T15:14:44;1.87;;;1.67;;
5702;SDS011;2876;51.738;10.050;2023-07-13T15:20:46;1.97;;;1.57;;
5702;SDS011;2876;51.738;10.050;2023-07-13T15:26:49;4.80;;;2.00;;
5702;SDS011;2876;51.738;10.050;2023-07-13T15:32:51;4.50;;;2.03;;
5702;SDS011;2876;51.738;10.050;2023-07-13T15:38:54;4.83;;;2.43;;
5702;SDS011;2876;51.738;10.050;2023-07-13T15:44:56;2.10;;;1.63;;
5702;SDS011;2876;51.738;10.050;2023-07-13T15:51:03;2.60;;;2.00;;
5702;SDS011;2876;51.738;10.050;2023-07-13T15:57:11;4.20;;;2.10;;
5702;SDS011;2876;51.738;10.050;2023-07-13T16:03:14;3.67;;;2.03;;
5702;SDS011;2876;51.738;10.050;2023-07-13T16:09:17;3.37;;;2.17;;
5702;SDS011;2876;51.738;10.050;2023-07-13T16:15:27;2.90;;;2.07;;
5702;SDS011;2876;51.738;10.050;2023-07-13T16:21:34;2.70;;;2.00;;
5702;SDS011;2876;51.738;10.050;2023-07-13T16:27:47;4.33;;;1.80;;
5702;SDS011;2876;51.738;10.050;2023-07-13T16:33:49;2.40;;;1.80;;
5702;SDS011;2876;51.738;10.050;2023-07-13T16:39:52;2.50;;;2.23;;
5702;SDS011;2876;51.738;10.050;2023-07-13T16:45:59;5.53;;;2.13;;
5702;SDS011;2876;51.738;10.050;2023-07-13T16:52:04;2.20;;;2.00;;
5702;SDS011;2876;51.738;10.050;2023-07-13T16:58:08;3.40;;;2.10;;
5702;SDS011;2876;51.738;10.050;2023-07-13T17:04:13;4.60;;;2.37;;
5702;SDS011;2876;51.738;10.050;2023-07-13T17:10:22;2.57;;;2.37;;
5702;SDS011;2876;51.738;10.050;2023-07-13T17:16:25;3.13;;;2.40;;
5702;SDS011;2876;51.738;10.050;2023-07-13T17:22:30;5.87;;;2.80;;
5702;SDS011;2876;51.738;10.050;2023-07-13T17:28:32;3.03;;;2.53;;
5702;SDS011;2876;51.738;10.050;2023-07-13T17:34:34;5.77;;;2.10;;
5702;SDS011;2876;51.738;10.050;2023-07-13T17:40:36;3.67;;;2.60;;
5702;SDS011;2876;51.738;10.050;2023-07-13T17:46:39;8.50;;;3.50;;
5702;SDS011;2876;51.738;10.050;2023-07-13T17:52:43;2.20;;;2.00;;
5702;SDS011;2876;51.738;10.050;2023-07-13T17:58:45;4.57;;;2.20;;
5702;SDS011;2876;51.738;10.050;2023-07-13T18:04:48;2.10;;;1.83;;
5702;SDS011;2876;51.738;10.050;2023-07-13T18:10:55;2.40;;;1.70;;
5702;SDS011;2876;51.738;10.050;2023-07-13T18:16:59;5.03;;;2.47;;
5702;SDS011;2876;51.738;10.050;2023-07-13T18:23:02;3.97;;;2.70;;
5702;SDS011;2876;51.738;10.050;2023-07-13T18:29:09;2.73;;;2.20;;
5702;SDS011;2876;51.738;10.050;2023-07-13T18:35:19;2.90;;;2.03;;
5702;SDS011;2876;51.738;10.050;2023-07-13T18:41:32;4.90;;;2.70;;
5702;SDS011;2876;51.738;10.050;2023-07-13T18:47:37;3.57;;;2.40;;
5702;SDS011;2876;51.738;10.050;2023-07-13T18:53:39;2.87;;;2.10;;
5702;SDS011;2876;51.738;10.050;2023-07-13T18:59:41;4.37;;;2.23;;
5702;SDS011;2876;51.738;10.050;2023-07-13T19:05:43;3.60;;;2.50;;
5702;SDS011;2876;51.738;10.050;2023-07-13T19:12:01;4.60;;;2.00;;
5702;SDS011;2876;51.738;10.050;2023-07-13T19:18:13;2.50;;;2.10;;
5702;SDS011;2876;51.738;10.050;2023-07-13T19:24:24;7.70;;;2.43;;
5702;SDS011;2876;51.738;10.050;2023-07-13T19:30:27;3.60;;;2.10;;
5702;SDS011;2876;51.738;10.050;2023-07-13T19:36:29;3.60;;;2.80;;
5702;SDS011;2876;51.738;10.050;2023-07-13T19:42:32;1.93;;;1.83;;
5702;SDS011;2876;51.738;10.050;2023-07-13T19:48:34;3.30;;;1.90;;
5702;SDS011;2876;51.738;10.050;2023-07-13T19:54:37;2.10;;;2.00;;
5702;SDS011;2876;51.738;10.050;2023-07-13T20:00:42;2.27;;;2.07;;
5702;SDS011;2876;51.738;10.050;2023-07-13T20:06:45;2.90;;;2.47;;
5702;SDS011;2876;51.738;10.050;2023-07-13T20:12:49;3.43;;;2.10;;
5702;SDS011;2876;51.738;10.050;2023-07-13T20:18:53;2.30;;;2.10;;
5702;SDS011;2876;51.738;10.050;2023-07-13T20:24:55;3.33;;;2.23;;
5702;SDS011;2876;51.738;10.050;2023-07-13T20:30:58;3.83;;;2.50;;
5702;SDS011;2876;51.738;10.050;2023-07-13T20:37:01;2.40;;;2.20;;
5702;SDS011;2876;51.738;10.050;2023-07-13T20:43:23;2.50;;;2.10;;
5702;SDS011;2876;51.738;10.050;2023-07-13T20:49:25;2.40;;;2.13;;
5702;SDS011;2876;51.738;10.050;2023-07-13T20:55:29;3.07;;;2.23;;
5702;SDS011;2876;51.738;10.050;2023-07-13T21:01:33;5.43;;;2.37;;
5702;SDS011;2876;51.738;10.050;2023-07-13T21:07:39;4.67;;;2.50;;
5702;SDS011;2876;51.738;10.050;2023-07-13T21:13:41;3.70;;;2.50;;
5702;SDS011;2876;51.738;10.050;2023-07-13T21:19:43;9.00;;;2.57;;
5702;SDS011;2876;51.738;10.050;2023-07-13T21:25:45;3.93;;;2.80;;
5702;SDS011;2876;51.738;10.050;2023-07-13T21:31:47;3.40;;;2.83;;
5702;SDS011;2876;51.738;10.050;2023-07-13T21:37:50;3.30;;;2.50;;
5702;SDS011;2876;51.738;10.050;2023-07-13T21:43:53;3.87;;;2.60;;
5702;SDS011;2876;51.738;10.050;2023-07-13T21:49:55;3.83;;;2.87;;
5702;SDS011;2876;51.738;10.050;2023-07-13T21:55:59;3.00;;;2.57;;
5702;SDS011;2876;51.738;10.050;2023-07-13T22:02:03;4.43;;;3.60;;
5702;SDS011;2876;51.738;10.050;2023-07-13T22:08:07;3.97;;;2.60;;
5702;SDS011;2876;51.738;10.050;2023-07-13T22:14:11;3.47;;;2.37;;
5702;SDS011;2876;51.738;10.050;2023-07-13T22:20:17;5.30;;;2.50;;
5702;SDS011;2876;51.738;10.050;2023-07-13T22:26:23;3.70;;;2.37;;
5702;SDS011;2876;51.738;10.050;2023-07-13T22:32:30;2.50;;;2.30;;
5702;SDS011;2876;51.738;10.050;2023-07-13T22:38:34;6.43;;;2.50;;
5702;SDS011;2876;51.738;10.050;2023-07-13T22:44:36;4.30;;;3.00;;
5702;SDS011;2876;51.738;10.050;2023-07-13T22:50:38;2.93;;;2.40;;
5702;SDS011;2876;51.738;10.050;2023-07-13T22:56:40;7.50;;;3.10;;
5702;SDS011;2876;51.738;10.050;2023-07-13T23:02:42;4.73;;;2.90;;
5702;SDS011;2876;51.738;10.050;2023-07-13T23:08:45;4.80;;;2.90;;
5702;SDS011;2876;51.738;10.050;2023-07-13T23:14:49;3.10;;;2.80;;
5702;SDS011;2876;51.738;10.050;2023-07-13T23:20:51;4.30;;;3.50;;
5702;SDS011;2876;51.738;10.050;2023-07-13T23:26:53;4.53;;;3.20;;
5702;SDS011;2876;51.738;10.050;2023-07-13T23:33:03;3.20;;;2.77;;
5702;SDS011;2876;51.738;10.050;2023-07-13T23:39:27;3.37;;;3.10;;
5702;SDS011;2876;51.738;10.050;2023-07-13T23:45:31;5.83;;;3.07;;
5702;SDS011;2876;51.738;10.050;2023-07-13T23:51:33;3.40;;;3.10;;
5702;SDS011;2876;51.738;10.050;2023-07-13T23:57:35;4.60;;;3.50;;
